Lake Lillian, Minnesota
Current Conditions -  °F | °C
As of 10:33 AM on Sunday 21 Dec 2014 (Local Time) from KOVL Reporting Station
Moderate Fog Moderate Fog  
Wind Chill: 26°   Ceiling: 100
Heat Index: 34°   Visibility: 0.5mi
Dew Point: 32°   Wind: 9mph
Humidity: 93%   Direction: 140°SE
Pressure: 29.77"   Gusts: NA
Location:  44.94°N, 94.88°W
Report Text: KOVL 211633Z AUTO 14008KT 1/2SM FG OVC001 01/00 A2977 RMK AO2
Loading
Personal Weather Stations






























Interactive Weather Map New forecast layout! Learn more

10-Day Weather Forecast

Advertisements
Track Severe Weather on mobile